2019 OVCX KingsCX Day 1 Wave 6

Saturday, October 26, 2019 12:30 PM (GMT-4) - Final results

Race info
Sport: Cycling - cyclocross
Location: Mason, OH, United States
Start type: Mass start
Racers: 94
Timed on: Other
Timed with: Other
Updated: Wednesday, November 27, 2019 6:35 PM (GMT-4)
Organized by: Ohio Valley Cyclocross
Race website: ovcx.com

Contact organizer

Use this form to send an email to the organizer.

Your name
Your email address
Confirm email address
Message to organizer
Send

  • Overall
Place Bib Racer name Affiliation Category Finish time
1795WELLS, JakeFORM Studio Men SS Open 41:53--100%21.66%19.76%
2705DRUMMOND, ChrisSoundpony Triad Bank Masters Men 35+ 42:21+0:28+1.11%98.90%20.79%18.87%
3731DAVIES, MattFULL CYCLE CYCLOCROSS TEAM Masters Men 40+ 43:05+1:12+2.87%97.21%19.42%17.46%
4741MATTERN, CraigGenesee Valley Cycling Club Masters Men 40+ 43:43+1:50+4.38%95.81%18.23%16.25%
5736WALKER, Jason Masters Men 40+ 43:44+1:51+4.42%95.77%18.20%16.22%
6700SCHEMPF, WestonSEAVS/Haymarket Masters Men 35+ 44:02+2:09+5.13%95.12%17.64%15.64%
7701ANDERSON, Eric Masters Men 35+ 44:21+2:28+5.89%94.44%17.05%15.04%
8710MORGAN, Justin Masters Men 40+ 44:50+2:57+7.04%93.42%16.14%14.11%
9704GAMM, RyanRed Kite Masters Men 35+ 45:01+3:08+7.48%93.04%15.80%13.76%
10754CARD, JONATHANOhio Velo Masters Men 50+ 45:09+3:16+7.80%92.76%15.55%13.51%
11756MCSHANE, Michael Masters Men 50+ 45:13+3:20+7.96%92.63%15.43%13.38%
12733SMITH, ShaddKCCX Elite Cyclocross Team Masters Men 40+ 45:18+3:25+8.16%92.46%15.27%13.22%
13744WEINERT, Jeff Masters Men 50+ 45:18+3:25+8.16%92.46%15.27%13.22%
14762AUGUST, AndyGenesee Valley Cycling Club Masters Men 50+ 45:18+3:25+8.16%92.46%15.27%13.22%
15706WILLIAMS, Steven Masters Men 40+ 45:29+3:36+8.60%92.09%14.93%12.87%
16732SPRANGER, Calvin Masters Men 40+ 45:52+3:59+9.51%91.32%14.21%12.13%
17716MESSER, AndrewBe Real Sports Masters Men 40+ 46:00+4:07+9.83%91.05%13.96%11.88%
18742BOWMAN, chris Masters Men 40+ 46:33+4:40+11.14%89.97%12.93%10.82%
19790ANDREWS, Zach Men SS Open 46:45+4:52+11.62%89.59%12.56%10.44%
20720KINTZEL, NickTeam Neighborlink Masters Men 40+ 47:12+5:19+12.69%88.74%11.72%9.58%
21726BRENNER, ShaneK&G Bike Center Masters Men 40+ 47:13+5:20+12.73%88.70%11.68%9.55%
22789MINICHIELLO, MikeDASH RACING Men SS Open 47:15+5:22+12.81%88.64%11.62%9.48%
23801BENDER, ZachCycle-Smart Men SS Open 47:21+5:28+13.05%88.45%11.43%9.29%
24729RICHARDSON, PaulTeam Neighborlink Masters Men 40+ 47:30+5:37+13.41%88.18%11.15%9.00%
25739CONAWAY, BrettMidwest Development Cycling Inc Masters Men 40+ 47:45+5:52+14.01%87.71%10.69%8.52%
26748GRAVER, Doug Masters Men 50+ 47:55+6:02+14.41%87.41%10.37%8.21%
27757EVANS, brent Masters Men 50+ 48:07+6:14+14.88%87.05%10.00%7.82%
28743ELLIS, Chris360 Racing Masters Men 40+ 48:31+6:38+15.84%86.33%9.25%7.06%
29750FIEBINGER, Zdenek 'Z' Masters Men 50+ 48:47+6:54+16.47%85.86%8.75%6.55%
30797EMMERT, PhillipMidwest Development Cycling Inc Men SS Open 48:54+7:01+16.75%85.65%8.54%6.32%
31749GOOCHER, scott Masters Men 50+ 48:58+7:05+16.91%85.53%8.41%6.19%
32738SHERMAN, BoK&G Bike Center Masters Men 40+ 49:25+7:32+17.99%84.76%7.57%5.33%
33784GIBBS, shelbyDASH RACING Men SS Open 49:40+7:47+18.58%84.33%7.10%4.85%
34717HELVIE, Scott Masters Men 40+ 49:46+7:53+18.82%84.16%6.91%4.66%
35709MCINTOSH, DuncanSeattle Race Club Masters Men 40+ 50:04+8:11+19.54%83.66%6.35%4.09%
36788BELCHER, JeremyRogue Racing Project Men SS Open 50:16+8:23+20.02%83.32%5.98%3.70%
37781THOMPSON, JohnMSPEEDWAX.COM Masters Men 60+ 50:26+8:33+20.41%83.05%5.67%3.38%
38760EMMERT, MatthewMidwest Development Cycling Inc Masters Men 50+ 50:39+8:46+20.93%82.69%5.26%2.97%
39723KAREW, JasonOhio Velo Masters Men 40+ 50:49+8:56+21.33%82.42%4.95%2.65%
40745LENNE, LarryTeam Heroes Masters Men 50+ 51:10+9:17+22.16%81.86%4.30%1.98%
41774CRAFT, JeffLake Effect Cycling Team Masters Men 60+ 51:28+9:35+22.88%81.38%3.73%1.40%
42787GOTTFRIED, MichaelLBR Protected by The Ritual Men SS Open 51:42+9:49+23.44%81.01%3.30%0.96%
43799CUTLER, Jessica Men SS Open 51:58+10:05+24.07%80.60%2.80%0.45%
44715MCKONLY, Chad Masters Men 40+ 52:12+10:19+24.63%80.24%2.36%0.00%
45727MAYHEW, Chris Masters Men 40+ 52:19+10:26+24.91%80.06%2.14%-0.22%
46809STONER, Jason Masters Men 40+ 52:19+10:26+24.91%80.06%2.14%-0.22%
47714DOSIER, CurtissKnobbe Cycling Masters Men 40+ 52:21+10:28+24.99%80.01%2.08%-0.29%
48740MUTH, Cory Masters Men 40+ 52:26+10:33+25.19%79.88%1.93%-0.45%
49703KELLERMEIER, Justin Masters Men 35+ 52:42+10:49+25.83%79.48%1.43%-0.96%
50724KNACKMUHS, EricI Am Racing Masters Men 40+ 53:32+11:39+27.82%78.24%-0.13%-2.55%
51722BABA, Ryosuke Masters Men 40+ 54:14+12:21+29.49%77.23%-1.44%-3.90%
52713KEPPLER, MichaelSpeedway Wheelmen Masters Men 40+ 54:47+12:54+30.80%76.45%-2.47%-4.95%
53761JENSEN, JimGray Goat Sports Masters Men 50+ 54:59+13:06+31.28%76.17%-2.84%-5.33%
54775ENDERLE, KeithTeam Horst Sports Masters Men 60+ 55:11+13:18+31.75%75.90%-3.22%-5.72%
55766GUILBERT, WilliamAnn Arbor Velo Club Masters Men 50+ 55:17+13:24+31.99%75.76%-3.40%-5.91%
56800ARNDT, ChristopherParadise Garage Racing Men SS Open 56:14+14:21+34.26%74.48%-5.18%-7.73%
57707IVERSEN, Fred Masters Men 40+ 1:00:00+18:07+43.26%69.81%-12.23%-14.94%
58721CARRAWAY, DougVeloscience Cycling Team Masters Men 40+ 1:00:00+18:07+43.26%69.81%-12.23%-14.94%
59734BELL, JonDogfish/Team Noah Masters Men 40+ 1:00:00+18:07+43.26%69.81%-12.23%-14.94%
60737RILEY, MichaelTeam Hungry Masters Men 40+ 1:00:00+18:07+43.26%69.81%-12.23%-14.94%
61747GAVIN, TimTeam Nebo Ridge Masters Men 50+ 1:00:00+18:07+43.26%69.81%-12.23%-14.94%
62751CLINE, PeterPSIMET Racing Masters Men 50+ 1:00:00+18:07+43.26%69.81%-12.23%-14.94%
63763YATES, RobMatrix Cycling Club Masters Men 50+ 1:00:00+18:07+43.26%69.81%-12.23%-14.94%
64764HIRSCHFELD, PatrickDASH RACING Masters Men 50+ 1:00:00+18:07+43.26%69.81%-12.23%-14.94%
65767MALLORY, Michael Masters Men 50+ 1:00:00+18:07+43.26%69.81%-12.23%-14.94%
66768TIMKO, Terry Masters Men 50+ 1:00:00+18:07+43.26%69.81%-12.23%-14.94%
67769WESTENDORF, RobertQueen City Wheels Masters Men 60+ 1:00:00+18:07+43.26%69.81%-12.23%-14.94%
68771STOREY, ChuckElement Cycles Masters Men 60+ 1:00:00+18:07+43.26%69.81%-12.23%-14.94%
69777KUBALA, RonLake Effect Cycling Team Masters Men 60+ 1:00:00+18:07+43.26%69.81%-12.23%-14.94%
70778HAMILTON, DougTeam Dayton Bicycling Masters Men 60+ 1:00:00+18:07+43.26%69.81%-12.23%-14.94%
71779NEUMAN, RobertTeam Dayton Bicycling Masters Men 60+ 1:00:00+18:07+43.26%69.81%-12.23%-14.94%
72780GOETZMANN, craig Masters Men 60+ 1:00:00+18:07+43.26%69.81%-12.23%-14.94%
73782CHITWOOD, TomSoundpony Triad Bank Masters Men 60+ 1:00:00+18:07+43.26%69.81%-12.23%-14.94%
74785DOTSON, Ryan Men SS Open 1:00:00+18:07+43.26%69.81%-12.23%-14.94%
75786SEILER, MichaelRogue Racing Project Men SS Open 1:00:00+18:07+43.26%69.81%-12.23%-14.94%
76792JOHNSON, KevinTeam Neighborlink Men SS Open 1:00:00+18:07+43.26%69.81%-12.23%-14.94%
77793MARTIN, Ryan Men SS Open 1:00:00+18:07+43.26%69.81%-12.23%-14.94%
78794LAKE, NateDASH RACING Men SS Open 1:00:00+18:07+43.26%69.81%-12.23%-14.94%
79796HACKETT, SpencerCap City Cyclocross Men SS Open 1:00:00+18:07+43.26%69.81%-12.23%-14.94%
80798DYAS, Gregory Men SS Open 1:00:00+18:07+43.26%69.81%-12.23%-14.94%
81802ODONNELL, Tim Men SS Open 1:00:00+18:07+43.26%69.81%-12.23%-14.94%
82805WEILER, GarrettDASH RACING Men SS Open 1:00:00+18:07+43.26%69.81%-12.23%-14.94%
83807LEONARD, Roy Masters Men 60+ 1:00:00+18:07+43.26%69.81%-12.23%-14.94%
84808SULENTIC, Jon Masters Men 50+ 1:00:00+18:07+43.26%69.81%-12.23%-14.94%
85810VIEH, Fin Men SS Open 1:00:00+18:07+43.26%69.81%-12.23%-14.94%
86814CONAWAY, Mike Masters Men 50+ 1:00:00+18:07+43.26%69.81%-12.23%-14.94%
87776LYTLE, Peter Masters Men 60+ 2:00:00+1:18:07+186.51%34.90%-124.45%-129.89%
-712JACKSON, Russ Masters Men 40+ DNF-----
-719GREENE, ToddBase Media Racing Team Masters Men 40+ DNF-----
-725BROCKET, JPMeteor-Allied Masters Men 40+ DNF-----
-730BONDS, PaulSoundpony Triad Bank Masters Men 40+ DNF-----
-735SCHMID, KurtNew England Devo p/b Cadence We Masters Men 40+ DNF-----
-770PERRINO, AndyTeam Hungry Masters Men 60+ DNF-----
-803KALBFELL, Lucas Men SS Open DNF-----
  • Masters Men 35+
Place Bib Racer name Affiliation Category Finish time
1705DRUMMOND, ChrisSoundpony Triad Bank Masters Men 35+ 42:21--100%7.31%4.51%
2700SCHEMPF, WestonSEAVS/Haymarket Masters Men 35+ 44:02+1:41+3.97%96.18%3.63%0.71%
3701ANDERSON, Eric Masters Men 35+ 44:21+2:00+4.72%95.49%2.93%0.00%
4704GAMM, RyanRed Kite Masters Men 35+ 45:01+2:40+6.30%94.08%1.47%-1.50%
5703KELLERMEIER, Justin Masters Men 35+ 52:42+10:21+24.44%80.36%-15.34%-18.83%
  • Masters Men 40+
Place Bib Racer name Affiliation Category Finish time
1731DAVIES, MattFULL CYCLE CYCLOCROSS TEAM Masters Men 40+ 43:05--100%14.23%13.12%
2741MATTERN, CraigGenesee Valley Cycling Club Masters Men 40+ 43:43+0:38+1.47%98.55%12.97%11.85%
3736WALKER, Jason Masters Men 40+ 43:44+0:39+1.51%98.51%12.94%11.81%
4710MORGAN, Justin Masters Men 40+ 44:50+1:45+4.06%96.10%10.75%9.60%
5733SMITH, ShaddKCCX Elite Cyclocross Team Masters Men 40+ 45:18+2:13+5.15%95.11%9.82%8.65%
6706WILLIAMS, Steven Masters Men 40+ 45:29+2:24+5.57%94.72%9.45%8.28%
7732SPRANGER, Calvin Masters Men 40+ 45:52+2:47+6.46%93.93%8.69%7.51%
8716MESSER, AndrewBe Real Sports Masters Men 40+ 46:00+2:55+6.77%93.66%8.43%7.24%
9742BOWMAN, chris Masters Men 40+ 46:33+3:28+8.05%92.55%7.33%6.13%
10720KINTZEL, NickTeam Neighborlink Masters Men 40+ 47:12+4:07+9.56%91.28%6.04%4.82%
11726BRENNER, ShaneK&G Bike Center Masters Men 40+ 47:13+4:08+9.59%91.25%6.00%4.79%
12729RICHARDSON, PaulTeam Neighborlink Masters Men 40+ 47:30+4:25+10.25%90.70%5.44%4.22%
13739CONAWAY, BrettMidwest Development Cycling Inc Masters Men 40+ 47:45+4:40+10.83%90.23%4.94%3.71%
14743ELLIS, Chris360 Racing Masters Men 40+ 48:31+5:26+12.61%88.80%3.42%2.17%
15738SHERMAN, BoK&G Bike Center Masters Men 40+ 49:25+6:20+14.70%87.18%1.62%0.35%
16717HELVIE, Scott Masters Men 40+ 49:46+6:41+15.51%86.57%0.93%-0.35%
17709MCINTOSH, DuncanSeattle Race Club Masters Men 40+ 50:04+6:59+16.21%86.05%0.33%-0.96%
18723KAREW, JasonOhio Velo Masters Men 40+ 50:49+7:44+17.95%84.78%-1.16%-2.47%
19715MCKONLY, Chad Masters Men 40+ 52:12+9:07+21.16%82.54%-3.92%-5.26%
20727MAYHEW, Chris Masters Men 40+ 52:19+9:14+21.43%82.35%-4.15%-5.49%
21809STONER, Jason Masters Men 40+ 52:19+9:14+21.43%82.35%-4.15%-5.49%
22714DOSIER, CurtissKnobbe Cycling Masters Men 40+ 52:21+9:16+21.51%82.30%-4.21%-5.56%
23740MUTH, Cory Masters Men 40+ 52:26+9:21+21.70%82.17%-4.38%-5.73%
24724KNACKMUHS, EricI Am Racing Masters Men 40+ 53:32+10:27+24.26%80.48%-6.57%-7.95%
25722BABA, Ryosuke Masters Men 40+ 54:14+11:09+25.88%79.44%-7.96%-9.36%
26713KEPPLER, MichaelSpeedway Wheelmen Masters Men 40+ 54:47+11:42+27.16%78.64%-9.06%-10.47%
27707IVERSEN, Fred Masters Men 40+ 1:00:00+16:55+39.26%71.81%-19.44%-20.99%
28721CARRAWAY, DougVeloscience Cycling Team Masters Men 40+ 1:00:00+16:55+39.26%71.81%-19.44%-20.99%
29734BELL, JonDogfish/Team Noah Masters Men 40+ 1:00:00+16:55+39.26%71.81%-19.44%-20.99%
30737RILEY, MichaelTeam Hungry Masters Men 40+ 1:00:00+16:55+39.26%71.81%-19.44%-20.99%
-712JACKSON, Russ Masters Men 40+ DNF-----
-719GREENE, ToddBase Media Racing Team Masters Men 40+ DNF-----
-725BROCKET, JPMeteor-Allied Masters Men 40+ DNF-----
-730BONDS, PaulSoundpony Triad Bank Masters Men 40+ DNF-----
-735SCHMID, KurtNew England Devo p/b Cadence We Masters Men 40+ DNF-----
  • Masters Men 50+
Place Bib Racer name Affiliation Category Finish time
1754CARD, JONATHANOhio Velo Masters Men 50+ 45:09--100%15.36%14.93%
2756MCSHANE, Michael Masters Men 50+ 45:13+0:04+0.15%99.85%15.23%14.81%
3744WEINERT, Jeff Masters Men 50+ 45:18+0:09+0.33%99.67%15.08%14.65%
4762AUGUST, AndyGenesee Valley Cycling Club Masters Men 50+ 45:18+0:09+0.33%99.67%15.08%14.65%
5748GRAVER, Doug Masters Men 50+ 47:55+2:46+6.13%94.23%10.17%9.72%
6757EVANS, brent Masters Men 50+ 48:07+2:58+6.57%93.83%9.80%9.34%
7750FIEBINGER, Zdenek 'Z' Masters Men 50+ 48:47+3:38+8.05%92.55%8.55%8.09%
8749GOOCHER, scott Masters Men 50+ 48:58+3:49+8.45%92.21%8.20%7.74%
9760EMMERT, MatthewMidwest Development Cycling Inc Masters Men 50+ 50:39+5:30+12.18%89.14%5.05%4.57%
10745LENNE, LarryTeam Heroes Masters Men 50+ 51:10+6:01+13.33%88.24%4.08%3.60%
11761JENSEN, JimGray Goat Sports Masters Men 50+ 54:59+9:50+21.78%82.12%-3.08%-3.60%
12766GUILBERT, WilliamAnn Arbor Velo Club Masters Men 50+ 55:17+10:08+22.44%81.67%-3.64%-4.16%
13747GAVIN, TimTeam Nebo Ridge Masters Men 50+ 1:00:00+14:51+32.89%75.25%-12.48%-13.05%
14751CLINE, PeterPSIMET Racing Masters Men 50+ 1:00:00+14:51+32.89%75.25%-12.48%-13.05%
15763YATES, RobMatrix Cycling Club Masters Men 50+ 1:00:00+14:51+32.89%75.25%-12.48%-13.05%
16764HIRSCHFELD, PatrickDASH RACING Masters Men 50+ 1:00:00+14:51+32.89%75.25%-12.48%-13.05%
17767MALLORY, Michael Masters Men 50+ 1:00:00+14:51+32.89%75.25%-12.48%-13.05%
18768TIMKO, Terry Masters Men 50+ 1:00:00+14:51+32.89%75.25%-12.48%-13.05%
19808SULENTIC, Jon Masters Men 50+ 1:00:00+14:51+32.89%75.25%-12.48%-13.05%
20814CONAWAY, Mike Masters Men 50+ 1:00:00+14:51+32.89%75.25%-12.48%-13.05%
  • Masters Men 60+
Place Bib Racer name Affiliation Category Finish time
1781THOMPSON, JohnMSPEEDWAX.COM Masters Men 60+ 50:26--100%20.06%15.94%
2774CRAFT, JeffLake Effect Cycling Team Masters Men 60+ 51:28+1:02+2.05%97.99%18.42%14.22%
3775ENDERLE, KeithTeam Horst Sports Masters Men 60+ 55:11+4:45+9.42%91.39%12.53%8.03%
4769WESTENDORF, RobertQueen City Wheels Masters Men 60+ 1:00:00+9:34+18.97%84.06%4.90%0.00%
5771STOREY, ChuckElement Cycles Masters Men 60+ 1:00:00+9:34+18.97%84.06%4.90%0.00%
6777KUBALA, RonLake Effect Cycling Team Masters Men 60+ 1:00:00+9:34+18.97%84.06%4.90%0.00%
7778HAMILTON, DougTeam Dayton Bicycling Masters Men 60+ 1:00:00+9:34+18.97%84.06%4.90%0.00%
8779NEUMAN, RobertTeam Dayton Bicycling Masters Men 60+ 1:00:00+9:34+18.97%84.06%4.90%0.00%
9780GOETZMANN, craig Masters Men 60+ 1:00:00+9:34+18.97%84.06%4.90%0.00%
10782CHITWOOD, TomSoundpony Triad Bank Masters Men 60+ 1:00:00+9:34+18.97%84.06%4.90%0.00%
11807LEONARD, Roy Masters Men 60+ 1:00:00+9:34+18.97%84.06%4.90%0.00%
12776LYTLE, Peter Masters Men 60+ 2:00:00+1:09:34+137.94%42.03%-90.20%-100.00%
-770PERRINO, AndyTeam Hungry Masters Men 60+ DNF-----
  • Men SS Open
Place Bib Racer name Affiliation Category Finish time
1795WELLS, JakeFORM Studio Men SS Open 41:53--100%23.29%27.93%
2790ANDREWS, Zach Men SS Open 46:45+4:52+11.62%89.59%14.37%19.56%
3789MINICHIELLO, MikeDASH RACING Men SS Open 47:15+5:22+12.81%88.64%13.46%18.70%
4801BENDER, ZachCycle-Smart Men SS Open 47:21+5:28+13.05%88.45%13.28%18.53%
5797EMMERT, PhillipMidwest Development Cycling Inc Men SS Open 48:54+7:01+16.75%85.65%10.44%15.86%
6784GIBBS, shelbyDASH RACING Men SS Open 49:40+7:47+18.58%84.33%9.03%14.54%
7788BELCHER, JeremyRogue Racing Project Men SS Open 50:16+8:23+20.02%83.32%7.93%13.51%
8787GOTTFRIED, MichaelLBR Protected by The Ritual Men SS Open 51:42+9:49+23.44%81.01%5.31%11.04%
9799CUTLER, Jessica Men SS Open 51:58+10:05+24.07%80.60%4.82%10.58%
10800ARNDT, ChristopherParadise Garage Racing Men SS Open 56:14+14:21+34.26%74.48%-2.99%3.24%
11785DOTSON, Ryan Men SS Open 1:00:00+18:07+43.26%69.81%-9.89%-3.24%
12786SEILER, MichaelRogue Racing Project Men SS Open 1:00:00+18:07+43.26%69.81%-9.89%-3.24%
13792JOHNSON, KevinTeam Neighborlink Men SS Open 1:00:00+18:07+43.26%69.81%-9.89%-3.24%
14793MARTIN, Ryan Men SS Open 1:00:00+18:07+43.26%69.81%-9.89%-3.24%
15794LAKE, NateDASH RACING Men SS Open 1:00:00+18:07+43.26%69.81%-9.89%-3.24%
16796HACKETT, SpencerCap City Cyclocross Men SS Open 1:00:00+18:07+43.26%69.81%-9.89%-3.24%
17798DYAS, Gregory Men SS Open 1:00:00+18:07+43.26%69.81%-9.89%-3.24%
18802ODONNELL, Tim Men SS Open 1:00:00+18:07+43.26%69.81%-9.89%-3.24%
19805WEILER, GarrettDASH RACING Men SS Open 1:00:00+18:07+43.26%69.81%-9.89%-3.24%
20810VIEH, Fin Men SS Open 1:00:00+18:07+43.26%69.81%-9.89%-3.24%
-803KALBFELL, Lucas Men SS Open DNF-----